DLH650 EDDF-UAAA
Flight info
| Callsign | DLH650 |
|---|---|
| Flight time | N/A |
| Altitude | 31000 |
| Route | SULUS3D SULUS Z650 VEMUT/N0477F370 DCT PEPIK DCT ERGOM DCT TEGRI/N0465F390 DCT EKSUN DCT RIVOS DCT DINRO N743 UDROS UM859 KARDE UN644 ROLIN DCT LAGAS M747 LUSAL N199 RASAM L88 METKA B476 UGLEP/N0472F410 B476 TIMGA A480 OTBOR/K0874F410 N147 PIDWO Y720 LAPZE Z640 GILAT N102 SMK N143 TAR Z817 AGLEK Z370 EKLAT |
| Aircraft | A343/H-SDE2E3FGHIJ4J5M1RWXY/LB1D1 |
Departure
| Time | N/A |
|---|---|
| Airport | Frankfurt Main Airport (EDDF) |
Arrival
| Time | 2026-05-08 04:03 |
|---|---|
| Airport | Almaty International Airport (UAAA) |
| Time | Latitude | Longitude | Altitude | Speed | Heading |
|---|---|---|---|---|---|
| 2026-05-08 02:52 | 41.83940 | 65.17390 | 38958 ft | 524 kts | 78° |
| 2026-05-08 02:52 | 41.84613 | 65.22207 | 38960 ft | 524 kts | 78° |
| 2026-05-08 02:52 | 41.85951 | 65.31816 | 38958 ft | 524 kts | 78° |
| 2026-05-08 02:53 | 41.87282 | 65.41431 | 38950 ft | 524 kts | 78° |
| 2026-05-08 02:53 | 41.88603 | 65.51044 | 38947 ft | 524 kts | 78° |
| 2026-05-08 02:54 | 41.89917 | 65.60658 | 38949 ft | 524 kts | 78° |
| 2026-05-08 02:54 | 41.91223 | 65.70279 | 38947 ft | 524 kts | 78° |
| 2026-05-08 02:55 | 41.93165 | 65.84707 | 38941 ft | 523 kts | 79° |
| 2026-05-08 02:56 | 41.94449 | 65.94325 | 38933 ft | 523 kts | 79° |
| 2026-05-08 02:56 | 41.95728 | 66.03950 | 38933 ft | 523 kts | 79° |
| 2026-05-08 02:57 | 41.96992 | 66.13572 | 38930 ft | 523 kts | 79° |
| 2026-05-08 02:57 | 41.98244 | 66.23202 | 38930 ft | 523 kts | 79° |
| 2026-05-08 02:58 | 41.99489 | 66.32830 | 38930 ft | 523 kts | 79° |
| 2026-05-08 02:58 | 42.00727 | 66.42462 | 38930 ft | 523 kts | 79° |
| 2026-05-08 02:59 | 42.01958 | 66.52104 | 38933 ft | 523 kts | 79° |
| 2026-05-08 02:59 | 42.03173 | 66.61679 | 38934 ft | 523 kts | 79° |
| 2026-05-08 03:00 | 42.04387 | 66.71318 | 38934 ft | 523 kts | 79° |
| 2026-05-08 03:00 | 42.05592 | 66.80959 | 38936 ft | 523 kts | 79° |
| 2026-05-08 03:01 | 42.06791 | 66.90611 | 38937 ft | 523 kts | 79° |
| 2026-05-08 03:01 | 42.07977 | 67.00239 | 38936 ft | 521 kts | 79° |
| 2026-05-08 03:02 | 42.09155 | 67.09858 | 38939 ft | 520 kts | 79° |
| 2026-05-08 03:02 | 42.10324 | 67.19471 | 38941 ft | 521 kts | 79° |
| 2026-05-08 03:03 | 42.11483 | 67.29083 | 38940 ft | 519 kts | 79° |
| 2026-05-08 03:03 | 42.12629 | 67.38654 | 38941 ft | 517 kts | 79° |
| 2026-05-08 03:04 | 42.13766 | 67.48218 | 38941 ft | 517 kts | 79° |
| 2026-05-08 03:04 | 42.14895 | 67.57779 | 38944 ft | 517 kts | 79° |
| 2026-05-08 03:05 | 42.16014 | 67.67332 | 38942 ft | 515 kts | 79° |
| 2026-05-08 03:05 | 42.17124 | 67.76873 | 38938 ft | 515 kts | 79° |
| 2026-05-08 03:06 | 42.18225 | 67.86416 | 38938 ft | 515 kts | 80° |
| 2026-05-08 03:06 | 42.19320 | 67.95972 | 38935 ft | 515 kts | 80° |
| 2026-05-08 03:07 | 42.20406 | 68.05525 | 38933 ft | 515 kts | 80° |
| 2026-05-08 03:07 | 42.21485 | 68.15088 | 38933 ft | 516 kts | 80° |
| 2026-05-08 03:08 | 42.22375 | 68.23033 | 38930 ft | 515 kts | 80° |
| 2026-05-08 03:08 | 42.23495 | 68.32569 | 38931 ft | 514 kts | 79° |
| 2026-05-08 03:09 | 42.24931 | 68.43616 | 38926 ft | 514 kts | 78° |
| 2026-05-08 03:09 | 42.26160 | 68.53129 | 38927 ft | 515 kts | 79° |
| 2026-05-08 03:10 | 42.27167 | 68.61098 | 38929 ft | 513 kts | 79° |
| 2026-05-08 03:10 | 42.28344 | 68.70534 | 38930 ft | 512 kts | 79° |
| 2026-05-08 03:11 | 42.29517 | 68.80022 | 38935 ft | 512 kts | 79° |
| 2026-05-08 03:11 | 42.30683 | 68.89520 | 38937 ft | 512 kts | 79° |
| 2026-05-08 03:12 | 42.31839 | 68.98992 | 38939 ft | 510 kts | 79° |
| 2026-05-08 03:12 | 42.32986 | 69.08457 | 38944 ft | 510 kts | 80° |
| 2026-05-08 03:13 | 42.34123 | 69.17912 | 38944 ft | 510 kts | 80° |
| 2026-05-08 03:13 | 42.35254 | 69.27376 | 38953 ft | 509 kts | 80° |
| 2026-05-08 03:14 | 42.36374 | 69.36820 | 38950 ft | 508 kts | 80° |
| 2026-05-08 03:14 | 42.37783 | 69.46168 | 38967 ft | 507 kts | 72° |
| 2026-05-08 03:15 | 42.39816 | 69.55295 | 38970 ft | 507 kts | 71° |
| 2026-05-08 03:15 | 42.41955 | 69.64402 | 38966 ft | 508 kts | 71° |
| 2026-05-08 03:16 | 42.44102 | 69.73525 | 38970 ft | 509 kts | 71° |
| 2026-05-08 03:16 | 42.46229 | 69.82652 | 38981 ft | 508 kts | 71° |
| 2026-05-08 03:17 | 42.48342 | 69.91792 | 38983 ft | 508 kts | 71° |
| 2026-05-08 03:17 | 42.50439 | 70.00910 | 38996 ft | 507 kts | 71° |
| 2026-05-08 03:18 | 42.52544 | 70.10025 | 39012 ft | 506 kts | 69° |
| 2026-05-08 03:18 | 42.54983 | 70.18967 | 39013 ft | 505 kts | 66° |
| 2026-05-08 03:19 | 42.57546 | 70.27832 | 39014 ft | 504 kts | 67° |
| 2026-05-08 03:19 | 42.60055 | 70.36701 | 39026 ft | 503 kts | 67° |
| 2026-05-08 03:20 | 42.62518 | 70.45600 | 39022 ft | 503 kts | 68° |
| 2026-05-08 03:20 | 42.64953 | 70.54514 | 39026 ft | 504 kts | 68° |
| 2026-05-08 03:21 | 42.67375 | 70.63419 | 39026 ft | 501 kts | 67° |
| 2026-05-08 03:21 | 42.69984 | 70.72117 | 39026 ft | 500 kts | 65° |
| 2026-05-08 03:22 | 42.72709 | 70.80815 | 39020 ft | 500 kts | 65° |
| 2026-05-08 03:22 | 42.75406 | 70.89534 | 39011 ft | 500 kts | 65° |
| 2026-05-08 03:23 | 42.78061 | 70.98253 | 39007 ft | 498 kts | 65° |
| 2026-05-08 03:23 | 42.80692 | 71.06960 | 39005 ft | 497 kts | 65° |
| 2026-05-08 03:24 | 42.83316 | 71.15674 | 39004 ft | 497 kts | 66° |
| 2026-05-08 03:24 | 42.85936 | 71.24398 | 39004 ft | 497 kts | 66° |
| 2026-05-08 03:25 | 42.87930 | 71.33433 | 39049 ft | 499 kts | 75° |
| 2026-05-08 03:25 | 42.89517 | 71.42658 | 39006 ft | 500 kts | 76° |
| 2026-05-08 03:26 | 42.91026 | 71.51917 | 39008 ft | 500 kts | 76° |
| 2026-05-08 03:26 | 42.92529 | 71.61172 | 39008 ft | 499 kts | 76° |
| 2026-05-08 03:27 | 42.94029 | 71.70388 | 39016 ft | 497 kts | 76° |
| 2026-05-08 03:27 | 42.95525 | 71.79589 | 39015 ft | 497 kts | 76° |
| 2026-05-08 03:28 | 42.97094 | 71.88778 | 39015 ft | 496 kts | 74° |
| 2026-05-08 03:28 | 42.98949 | 71.97856 | 39021 ft | 496 kts | 73° |
| 2026-05-08 03:29 | 43.00832 | 72.06922 | 39023 ft | 496 kts | 73° |
| 2026-05-08 03:29 | 43.02667 | 72.16011 | 39023 ft | 496 kts | 73° |
| 2026-05-08 03:30 | 43.05352 | 72.29614 | 39022 ft | 496 kts | 74° |
| 2026-05-08 03:31 | 43.08914 | 72.47841 | 39015 ft | 496 kts | 74° |
| 2026-05-08 03:32 | 43.11569 | 72.61523 | 39010 ft | 496 kts | 74° |
| 2026-05-08 03:32 | 43.13331 | 72.70654 | 39002 ft | 496 kts | 74° |
| 2026-05-08 03:33 | 43.15088 | 72.79798 | 38999 ft | 496 kts | 74° |
| 2026-05-08 03:33 | 43.16836 | 72.88944 | 38998 ft | 496 kts | 74° |
| 2026-05-08 03:34 | 43.18577 | 72.98097 | 39004 ft | 496 kts | 74° |
| 2026-05-08 03:34 | 43.20309 | 73.07245 | 39004 ft | 496 kts | 74° |
| 2026-05-08 03:35 | 43.22032 | 73.16398 | 39002 ft | 496 kts | 74° |
| 2026-05-08 03:35 | 43.23736 | 73.25554 | 39002 ft | 496 kts | 74° |
| 2026-05-08 03:36 | 43.25432 | 73.34712 | 39004 ft | 495 kts | 74° |
| 2026-05-08 03:36 | 43.27119 | 73.43857 | 39003 ft | 494 kts | 74° |
| 2026-05-08 03:37 | 43.28800 | 73.53003 | 39011 ft | 494 kts | 74° |
| 2026-05-08 03:37 | 43.30473 | 73.62148 | 39010 ft | 494 kts | 74° |
| 2026-05-08 03:38 | 43.32137 | 73.71292 | 39012 ft | 493 kts | 74° |
| 2026-05-08 03:38 | 43.33792 | 73.80431 | 39015 ft | 492 kts | 74° |
| 2026-05-08 03:39 | 43.35436 | 73.89555 | 39013 ft | 492 kts | 74° |
| 2026-05-08 03:39 | 43.36168 | 73.93631 | 39018 ft | 492 kts | 74° |
| 2026-05-08 03:40 | 43.36803 | 73.97176 | 39013 ft | 492 kts | 74° |
| 2026-05-08 03:40 | 43.38435 | 74.06314 | 38960 ft | 492 kts | 74° |
| 2026-05-08 03:40 | 43.39248 | 74.10885 | 38741 ft | 491 kts | 74° |
| 2026-05-08 03:41 | 43.40055 | 74.15433 | 38491 ft | 490 kts | 74° |
| 2026-05-08 03:41 | 43.40861 | 74.19989 | 38201 ft | 490 kts | 75° |
| 2026-05-08 03:41 | 43.41633 | 74.24533 | 37782 ft | 487 kts | 78° |
| 2026-05-08 03:41 | 43.41886 | 74.29162 | 37231 ft | 487 kts | 90° |
| 2026-05-08 03:42 | 43.41706 | 74.33811 | 36624 ft | 487 kts | 93° |
| 2026-05-08 03:42 | 43.41440 | 74.38454 | 36016 ft | 487 kts | 94° |
| 2026-05-08 03:42 | 43.41154 | 74.43107 | 35314 ft | 489 kts | 94° |
| 2026-05-08 03:42 | 43.40861 | 74.47776 | 34598 ft | 492 kts | 94° |
| 2026-05-08 03:43 | 43.40563 | 74.52475 | 33826 ft | 494 kts | 94° |
| 2026-05-08 03:43 | 43.40262 | 74.57192 | 32939 ft | 497 kts | 94° |
| 2026-05-08 03:43 | 43.39956 | 74.61945 | 32087 ft | 500 kts | 94° |
| 2026-05-08 03:43 | 43.39648 | 74.66712 | 31208 ft | 502 kts | 94° |
| 2026-05-08 03:44 | 43.39335 | 74.71508 | 30339 ft | 506 kts | 94° |
| 2026-05-08 03:44 | 43.39019 | 74.76328 | 29536 ft | 504 kts | 94° |
| 2026-05-08 03:44 | 43.38703 | 74.81103 | 28931 ft | 498 kts | 94° |
| 2026-05-08 03:44 | 43.38389 | 74.85816 | 28329 ft | 493 kts | 94° |
| 2026-05-08 03:45 | 43.38077 | 74.90480 | 27729 ft | 488 kts | 94° |
| 2026-05-08 03:45 | 43.37766 | 74.95101 | 27128 ft | 483 kts | 94° |
| 2026-05-08 03:45 | 43.37456 | 74.99679 | 26538 ft | 479 kts | 94° |
| 2026-05-08 03:45 | 43.37151 | 75.04154 | 25961 ft | 475 kts | 94° |
| 2026-05-08 03:46 | 43.36839 | 75.08713 | 25357 ft | 471 kts | 94° |
| 2026-05-08 03:46 | 43.36535 | 75.13120 | 24767 ft | 468 kts | 95° |
| 2026-05-08 03:46 | 43.36228 | 75.17559 | 24174 ft | 465 kts | 95° |
| 2026-05-08 03:46 | 43.35921 | 75.21973 | 23563 ft | 463 kts | 95° |
| 2026-05-08 03:47 | 43.35613 | 75.26361 | 22898 ft | 460 kts | 95° |
| 2026-05-08 03:47 | 43.35306 | 75.30708 | 22293 ft | 455 kts | 95° |
| 2026-05-08 03:47 | 43.35001 | 75.35018 | 21709 ft | 451 kts | 95° |
| 2026-05-08 03:47 | 43.34697 | 75.39285 | 21127 ft | 447 kts | 95° |
| 2026-05-08 03:48 | 43.34394 | 75.43511 | 20555 ft | 443 kts | 95° |
| 2026-05-08 03:48 | 43.34093 | 75.47701 | 19976 ft | 439 kts | 95° |
| 2026-05-08 03:48 | 43.33792 | 75.51859 | 19404 ft | 436 kts | 95° |
| 2026-05-08 03:48 | 43.33492 | 75.55988 | 18834 ft | 433 kts | 95° |
| 2026-05-08 03:49 | 43.33192 | 75.60083 | 18269 ft | 429 kts | 95° |
| 2026-05-08 03:49 | 43.32894 | 75.64146 | 17656 ft | 426 kts | 95° |
| 2026-05-08 03:49 | 43.32597 | 75.68170 | 17092 ft | 421 kts | 96° |
| 2026-05-08 03:49 | 43.32302 | 75.72151 | 16556 ft | 417 kts | 96° |
| 2026-05-08 03:50 | 43.32005 | 75.76147 | 15989 ft | 413 kts | 96° |
| 2026-05-08 03:50 | 43.31717 | 75.79996 | 15444 ft | 409 kts | 96° |
| 2026-05-08 03:50 | 43.31426 | 75.83865 | 14914 ft | 406 kts | 96° |
| 2026-05-08 03:50 | 43.31136 | 75.87704 | 14359 ft | 403 kts | 96° |
| 2026-05-08 03:51 | 43.30846 | 75.91521 | 13810 ft | 400 kts | 96° |
| 2026-05-08 03:51 | 43.30557 | 75.95308 | 13227 ft | 397 kts | 96° |
| 2026-05-08 03:51 | 43.30269 | 75.99061 | 12654 ft | 393 kts | 96° |
| 2026-05-08 03:51 | 43.29984 | 76.02776 | 12130 ft | 389 kts | 96° |
| 2026-05-08 03:52 | 43.29700 | 76.06449 | 11594 ft | 385 kts | 96° |
| 2026-05-08 03:52 | 43.29418 | 76.10082 | 11077 ft | 381 kts | 96° |
| 2026-05-08 03:52 | 43.29141 | 76.13641 | 10899 ft | 367 kts | 96° |
| 2026-05-08 03:52 | 43.28874 | 76.17054 | 10806 ft | 352 kts | 97° |
| 2026-05-08 03:53 | 43.28617 | 76.20332 | 10666 ft | 339 kts | 97° |
| 2026-05-08 03:53 | 43.28367 | 76.23499 | 10519 ft | 329 kts | 97° |
| 2026-05-08 03:53 | 43.28125 | 76.26568 | 10363 ft | 319 kts | 97° |
| 2026-05-08 03:53 | 43.27888 | 76.29544 | 10247 ft | 309 kts | 97° |
| 2026-05-08 03:54 | 43.27657 | 76.32449 | 10034 ft | 304 kts | 97° |
| 2026-05-08 03:54 | 43.27429 | 76.35314 | 9776 ft | 301 kts | 97° |
| 2026-05-08 03:54 | 43.27202 | 76.38156 | 9472 ft | 298 kts | 97° |
| 2026-05-08 03:54 | 43.26975 | 76.40972 | 9150 ft | 296 kts | 97° |
| 2026-05-08 03:55 | 43.26748 | 76.43776 | 8828 ft | 294 kts | 96° |
| 2026-05-08 03:55 | 43.26523 | 76.46558 | 8511 ft | 292 kts | 96° |
| 2026-05-08 03:55 | 43.26299 | 76.49322 | 8222 ft | 291 kts | 96° |
| 2026-05-08 03:55 | 43.26074 | 76.52074 | 7887 ft | 290 kts | 96° |
| 2026-05-08 03:56 | 43.25850 | 76.54830 | 7552 ft | 291 kts | 96° |
| 2026-05-08 03:56 | 43.25625 | 76.57574 | 7234 ft | 289 kts | 96° |
| 2026-05-08 03:56 | 43.25477 | 76.59382 | 7033 ft | 288 kts | 96° |
| 2026-05-08 03:56 | 43.25253 | 76.62100 | 6719 ft | 286 kts | 96° |
| 2026-05-08 03:57 | 43.25029 | 76.64806 | 6394 ft | 285 kts | 96° |
| 2026-05-08 03:57 | 43.24805 | 76.67501 | 6060 ft | 284 kts | 96° |
| 2026-05-08 03:57 | 43.24585 | 76.70177 | 5770 ft | 280 kts | 96° |
| 2026-05-08 03:57 | 43.24368 | 76.72796 | 5312 ft | 273 kts | 96° |
| 2026-05-08 03:58 | 43.24151 | 76.75376 | 4744 ft | 272 kts | 95° |
| 2026-05-08 03:58 | 43.23937 | 76.77961 | 4328 ft | 273 kts | 95° |
| 2026-05-08 03:58 | 43.23944 | 76.80468 | 4212 ft | 251 kts | 77° |
| 2026-05-08 03:58 | 43.24573 | 76.82538 | 4217 ft | 224 kts | 58° |
| 2026-05-08 03:59 | 43.25380 | 76.84232 | 4212 ft | 201 kts | 54° |
| 2026-05-08 03:59 | 43.26135 | 76.85735 | 4215 ft | 183 kts | 53° |
| 2026-05-08 03:59 | 43.26863 | 76.87132 | 4158 ft | 180 kts | 53° |
| 2026-05-08 03:59 | 43.27575 | 76.88564 | 4220 ft | 183 kts | 56° |
| 2026-05-08 04:00 | 43.28265 | 76.89967 | 4194 ft | 170 kts | 55° |
| 2026-05-08 04:00 | 43.28925 | 76.91285 | 4046 ft | 165 kts | 54° |
| 2026-05-08 04:00 | 43.29561 | 76.92552 | 3789 ft | 157 kts | 55° |
| 2026-05-08 04:00 | 43.30154 | 76.93746 | 3586 ft | 146 kts | 55° |
| 2026-05-08 04:01 | 43.30712 | 76.94871 | 3421 ft | 141 kts | 55° |
| 2026-05-08 04:01 | 43.31265 | 76.95987 | 3238 ft | 142 kts | 56° |
| 2026-05-08 04:01 | 43.31820 | 76.97108 | 3047 ft | 142 kts | 55° |
| 2026-05-08 04:01 | 43.32372 | 76.98221 | 2858 ft | 140 kts | 54° |
| 2026-05-08 04:02 | 43.32915 | 76.99315 | 2682 ft | 137 kts | 54° |
| 2026-05-08 04:02 | 43.33452 | 77.00404 | 2502 ft | 137 kts | 55° |
| 2026-05-08 04:02 | 43.33994 | 77.01488 | 2320 ft | 136 kts | 54° |
| 2026-05-08 04:02 | 43.34512 | 77.02529 | 2235 ft | 115 kts | 56° |
| 2026-05-08 04:03 | 43.34858 | 77.03224 | 2226 ft | 64 kts | 56° |
| 2026-05-08 04:03 | 43.35234 | 77.03923 | 2228 ft | 31 kts | 20° |
| 2026-05-08 04:03 | 43.35412 | 77.04012 | 2225 ft | 20 kts | 8° |
| 2026-05-08 04:04 | 43.35428 | 77.04009 | 2226 ft | 1 kts | 341° |
| 2026-05-08 04:04 | 43.35441 | 77.03984 | 2224 ft | 7 kts | 301° |
| 2026-05-08 04:04 | 43.35429 | 77.03918 | 2223 ft | 12 kts | 244° |
| 2026-05-08 04:04 | 43.35362 | 77.03784 | 2225 ft | 18 kts | 234° |
| 2026-05-08 04:05 | 43.35291 | 77.03636 | 2226 ft | 19 kts | 237° |
| 2026-05-08 04:05 | 43.35217 | 77.03489 | 2225 ft | 19 kts | 235° |
| 2026-05-08 04:05 | 43.35143 | 77.03339 | 2223 ft | 20 kts | 236° |
| 2026-05-08 04:05 | 43.35065 | 77.03178 | 2224 ft | 22 kts | 236° |
| 2026-05-08 04:06 | 43.34964 | 77.02978 | 2225 ft | 27 kts | 235° |
| 2026-05-08 04:06 | 43.34857 | 77.02761 | 2225 ft | 28 kts | 236° |
| 2026-05-08 04:06 | 43.34773 | 77.02537 | 2225 ft | 24 kts | 265° |
| 2026-05-08 04:06 | 43.34782 | 77.02306 | 2232 ft | 25 kts | 274° |
| 2026-05-08 04:07 | 43.34794 | 77.02068 | 2232 ft | 25 kts | 273° |
| 2026-05-08 04:07 | 43.34806 | 77.01827 | 2232 ft | 25 kts | 274° |
| 2026-05-08 04:07 | 43.34817 | 77.01593 | 2225 ft | 21 kts | 274° |
| 2026-05-08 04:07 | 43.34864 | 77.01507 | 2229 ft | 10 kts | 336° |
| 2026-05-08 04:08 | 43.34965 | 77.01446 | 2229 ft | 20 kts | 336° |
| 2026-05-08 04:08 | 43.35056 | 77.01382 | 2225 ft | 5 kts | 311° |
| 2026-05-08 04:08 | 43.35057 | 77.01348 | 2225 ft | 6 kts | 265° |
| 2026-05-08 04:08 | 43.35044 | 77.01288 | 2222 ft | 0 kts | 244° |
| 2026-05-08 04:09 | 43.35037 | 77.01266 | 2224 ft | 3 kts | 246° |
| 2026-05-08 04:09 | 43.35034 | 77.01258 | 2224 ft | 2 kts | 246° |
| 2026-05-08 04:09 | 43.35034 | 77.01257 | 2224 ft | 0 kts | 246° |